sensor_id;sensor_type;location;lat;lon;timestamp;P1;durP1;ratioP1;P2;durP2;ratioP2
38117;SDS011;23928;47.562;7.508;2022-09-12T00:00:10;4.30;;;1.63;;
38117;SDS011;23928;47.562;7.508;2022-09-12T00:02:36;1.70;;;1.60;;
38117;SDS011;23928;47.562;7.508;2022-09-12T00:05:02;2.03;;;1.20;;
38117;SDS011;23928;47.562;7.508;2022-09-12T00:07:28;1.53;;;1.43;;
38117;SDS011;23928;47.562;7.508;2022-09-12T00:09:53;2.27;;;1.90;;
38117;SDS011;23928;47.562;7.508;2022-09-12T00:12:19;3.53;;;2.17;;
38117;SDS011;23928;47.562;7.508;2022-09-12T00:14:44;1.70;;;1.60;;
38117;SDS011;23928;47.562;7.508;2022-09-12T00:17:10;1.70;;;1.30;;
38117;SDS011;23928;47.562;7.508;2022-09-12T00:19:36;1.37;;;1.27;;
38117;SDS011;23928;47.562;7.508;2022-09-12T00:22:02;1.07;;;1.03;;
38117;SDS011;23928;47.562;7.508;2022-09-12T00:24:27;1.70;;;1.40;;
38117;SDS011;23928;47.562;7.508;2022-09-12T00:26:53;3.83;;;2.20;;
38117;SDS011;23928;47.562;7.508;2022-09-12T00:29:20;1.57;;;1.43;;
38117;SDS011;23928;47.562;7.508;2022-09-12T00:31:46;1.87;;;1.70;;
38117;SDS011;23928;47.562;7.508;2022-09-12T00:34:12;2.07;;;1.90;;
38117;SDS011;23928;47.562;7.508;2022-09-12T00:36:38;2.40;;;1.70;;
38117;SDS011;23928;47.562;7.508;2022-09-12T00:39:04;2.70;;;1.83;;
38117;SDS011;23928;47.562;7.508;2022-09-12T00:41:35;1.33;;;1.23;;
38117;SDS011;23928;47.562;7.508;2022-09-12T00:46:57;0.80;;;0.80;;
38117;SDS011;23928;47.562;7.508;2022-09-12T00:49:25;1.70;;;1.40;;
38117;SDS011;23928;47.562;7.508;2022-09-12T00:54:22;0.80;;;0.80;;
38117;SDS011;23928;47.562;7.508;2022-09-12T00:56:51;1.67;;;1.00;;
38117;SDS011;23928;47.562;7.508;2022-09-12T00:59:21;3.47;;;1.63;;
38117;SDS011;23928;47.562;7.508;2022-09-12T01:01:53;2.80;;;1.63;;
38117;SDS011;23928;47.562;7.508;2022-09-12T01:04:21;1.50;;;1.40;;
38117;SDS011;23928;47.562;7.508;2022-09-12T01:06:49;2.80;;;1.33;;
38117;SDS011;23928;47.562;7.508;2022-09-12T01:09:18;2.57;;;1.70;;
38117;SDS011;23928;47.562;7.508;2022-09-12T01:11:46;2.27;;;1.60;;
38117;SDS011;23928;47.562;7.508;2022-09-12T01:14:14;2.97;;;1.47;;
38117;SDS011;23928;47.562;7.508;2022-09-12T01:16:41;1.80;;;1.50;;
38117;SDS011;23928;47.562;7.508;2022-09-12T01:30:48;2.13;;;1.53;;
38117;SDS011;23928;47.562;7.508;2022-09-12T01:38:45;2.83;;;1.70;;
38117;SDS011;23928;47.562;7.508;2022-09-12T01:49:38;2.33;;;2.07;;
38117;SDS011;23928;47.562;7.508;2022-09-12T01:52:18;3.47;;;1.83;;
38117;SDS011;23928;47.562;7.508;2022-09-12T01:54:49;2.00;;;1.57;;
38117;SDS011;23928;47.562;7.508;2022-09-12T01:57:28;1.73;;;1.63;;
38117;SDS011;23928;47.562;7.508;2022-09-12T02:00:03;1.80;;;1.20;;
38117;SDS011;23928;47.562;7.508;2022-09-12T02:05:08;0.83;;;0.70;;
38117;SDS011;23928;47.562;7.508;2022-09-12T02:07:44;2.60;;;1.10;;
38117;SDS011;23928;47.562;7.508;2022-09-12T02:10:15;1.40;;;1.20;;
38117;SDS011;23928;47.562;7.508;2022-09-12T02:12:49;2.77;;;1.80;;
38117;SDS011;23928;47.562;7.508;2022-09-12T02:15:20;1.60;;;1.50;;
38117;SDS011;23928;47.562;7.508;2022-09-12T02:17:49;2.07;;;1.73;;
38117;SDS011;23928;47.562;7.508;2022-09-12T02:20:20;2.20;;;1.70;;
38117;SDS011;23928;47.562;7.508;2022-09-12T02:22:51;2.33;;;1.63;;
38117;SDS011;23928;47.562;7.508;2022-09-12T02:25:20;1.83;;;1.37;;
38117;SDS011;23928;47.562;7.508;2022-09-12T02:27:52;2.23;;;1.50;;
38117;SDS011;23928;47.562;7.508;2022-09-12T02:30:23;2.13;;;1.77;;
38117;SDS011;23928;47.562;7.508;2022-09-12T02:38:24;2.07;;;1.67;;
38117;SDS011;23928;47.562;7.508;2022-09-12T02:40:57;1.77;;;1.40;;
38117;SDS011;23928;47.562;7.508;2022-09-12T02:43:23;1.10;;;1.00;;
38117;SDS011;23928;47.562;7.508;2022-09-12T02:45:48;1.30;;;1.10;;
38117;SDS011;23928;47.562;7.508;2022-09-12T02:48:36;1.43;;;1.33;;
38117;SDS011;23928;47.562;7.508;2022-09-12T02:51:03;2.33;;;1.07;;
38117;SDS011;23928;47.562;7.508;2022-09-12T02:53:29;1.50;;;1.40;;
38117;SDS011;23928;47.562;7.508;2022-09-12T02:55:54;1.70;;;1.60;;
38117;SDS011;23928;47.562;7.508;2022-09-12T02:58:21;2.23;;;1.60;;
38117;SDS011;23928;47.562;7.508;2022-09-12T03:00:56;1.70;;;1.60;;
38117;SDS011;23928;47.562;7.508;2022-09-12T03:15:27;2.03;;;1.33;;
38117;SDS011;23928;47.562;7.508;2022-09-12T03:20:31;1.57;;;1.47;;
38117;SDS011;23928;47.562;7.508;2022-09-12T03:23:16;4.80;;;1.30;;
38117;SDS011;23928;47.562;7.508;2022-09-12T03:26:05;2.70;;;1.30;;
38117;SDS011;23928;47.562;7.508;2022-09-12T03:29:02;3.87;;;1.60;;
38117;SDS011;23928;47.562;7.508;2022-09-12T03:31:30;3.13;;;1.07;;
38117;SDS011;23928;47.562;7.508;2022-09-12T03:33:56;1.47;;;1.37;;
38117;SDS011;23928;47.562;7.508;2022-09-12T03:36:25;2.90;;;1.40;;
38117;SDS011;23928;47.562;7.508;2022-09-12T03:38:52;2.03;;;1.70;;
38117;SDS011;23928;47.562;7.508;2022-09-12T03:41:17;2.43;;;1.77;;
38117;SDS011;23928;47.562;7.508;2022-09-12T03:43:43;2.77;;;1.23;;
38117;SDS011;23928;47.562;7.508;2022-09-12T03:46:10;2.20;;;2.00;;
38117;SDS011;23928;47.562;7.508;2022-09-12T03:48:36;2.77;;;1.70;;
38117;SDS011;23928;47.562;7.508;2022-09-12T03:51:05;2.70;;;2.13;;
38117;SDS011;23928;47.562;7.508;2022-09-12T03:53:32;2.80;;;2.00;;
38117;SDS011;23928;47.562;7.508;2022-09-12T03:55:58;3.03;;;1.80;;
38117;SDS011;23928;47.562;7.508;2022-09-12T03:58:28;3.90;;;1.70;;
38117;SDS011;23928;47.562;7.508;2022-09-12T04:00:54;2.40;;;1.57;;
38117;SDS011;23928;47.562;7.508;2022-09-12T04:03:20;1.00;;;1.00;;
38117;SDS011;23928;47.562;7.508;2022-09-12T04:05:46;2.40;;;1.30;;
38117;SDS011;23928;47.562;7.508;2022-09-12T04:08:12;3.73;;;1.73;;
38117;SDS011;23928;47.562;7.508;2022-09-12T04:10:38;1.80;;;1.70;;
38117;SDS011;23928;47.562;7.508;2022-09-12T04:13:04;1.80;;;1.70;;
38117;SDS011;23928;47.562;7.508;2022-09-12T04:15:29;2.47;;;2.00;;
38117;SDS011;23928;47.562;7.508;2022-09-12T04:17:55;2.50;;;1.87;;
38117;SDS011;23928;47.562;7.508;2022-09-12T04:20:21;1.90;;;1.40;;
38117;SDS011;23928;47.562;7.508;2022-09-12T04:22:46;5.00;;;1.70;;
38117;SDS011;23928;47.562;7.508;2022-09-12T04:25:12;5.67;;;1.70;;
38117;SDS011;23928;47.562;7.508;2022-09-12T04:27:37;2.67;;;1.53;;
38117;SDS011;23928;47.562;7.508;2022-09-12T04:30:03;3.40;;;1.60;;
38117;SDS011;23928;47.562;7.508;2022-09-12T04:32:29;3.07;;;1.60;;
38117;SDS011;23928;47.562;7.508;2022-09-12T04:34:55;6.37;;;1.67;;
38117;SDS011;23928;47.562;7.508;2022-09-12T04:37:21;1.40;;;1.30;;
38117;SDS011;23928;47.562;7.508;2022-09-12T04:39:48;2.80;;;1.80;;
38117;SDS011;23928;47.562;7.508;2022-09-12T04:42:15;2.70;;;1.70;;
38117;SDS011;23928;47.562;7.508;2022-09-12T04:44:41;2.93;;;1.33;;
38117;SDS011;23928;47.562;7.508;2022-09-12T04:47:07;1.93;;;0.80;;
38117;SDS011;23928;47.562;7.508;2022-09-12T04:49:33;1.33;;;1.23;;
38117;SDS011;23928;47.562;7.508;2022-09-12T04:51:59;2.57;;;1.63;;
38117;SDS011;23928;47.562;7.508;2022-09-12T04:54:24;2.10;;;1.87;;
38117;SDS011;23928;47.562;7.508;2022-09-12T04:56:50;2.43;;;1.90;;
38117;SDS011;23928;47.562;7.508;2022-09-12T04:59:17;2.33;;;1.90;;
38117;SDS011;23928;47.562;7.508;2022-09-12T05:01:44;3.70;;;2.00;;
38117;SDS011;23928;47.562;7.508;2022-09-12T05:04:10;2.63;;;1.67;;
38117;SDS011;23928;47.562;7.508;2022-09-12T05:06:37;4.33;;;1.70;;
38117;SDS011;23928;47.562;7.508;2022-09-12T05:09:04;3.77;;;1.70;;
38117;SDS011;23928;47.562;7.508;2022-09-12T05:11:32;1.70;;;1.30;;
38117;SDS011;23928;47.562;7.508;2022-09-12T05:14:00;3.60;;;2.23;;
38117;SDS011;23928;47.562;7.508;2022-09-12T05:16:26;2.87;;;2.13;;
38117;SDS011;23928;47.562;7.508;2022-09-12T05:18:52;3.67;;;2.10;;
38117;SDS011;23928;47.562;7.508;2022-09-12T05:21:20;2.20;;;2.00;;
38117;SDS011;23928;47.562;7.508;2022-09-12T05:23:50;2.37;;;1.90;;
38117;SDS011;23928;47.562;7.508;2022-09-12T05:26:20;1.40;;;1.30;;
38117;SDS011;23928;47.562;7.508;2022-09-12T05:28:47;3.20;;;1.73;;
38117;SDS011;23928;47.562;7.508;2022-09-12T05:31:18;2.20;;;2.00;;
38117;SDS011;23928;47.562;7.508;2022-09-12T05:33:48;5.10;;;2.00;;
38117;SDS011;23928;47.562;7.508;2022-09-12T05:36:16;2.83;;;2.20;;
38117;SDS011;23928;47.562;7.508;2022-09-12T05:38:43;2.43;;;2.20;;
38117;SDS011;23928;47.562;7.508;2022-09-12T05:43:37;2.50;;;2.30;;
38117;SDS011;23928;47.562;7.508;2022-09-12T05:46:04;2.20;;;2.00;;
38117;SDS011;23928;47.562;7.508;2022-09-12T05:48:35;2.27;;;2.07;;
38117;SDS011;23928;47.562;7.508;2022-09-12T05:51:05;2.77;;;2.00;;
38117;SDS011;23928;47.562;7.508;2022-09-12T05:53:45;2.23;;;2.00;;
38117;SDS011;23928;47.562;7.508;2022-09-12T05:56:14;2.30;;;2.10;;
38117;SDS011;23928;47.562;7.508;2022-09-12T05:58:42;4.83;;;2.70;;
38117;SDS011;23928;47.562;7.508;2022-09-12T06:01:13;2.43;;;2.00;;
38117;SDS011;23928;47.562;7.508;2022-09-12T06:03:41;2.27;;;2.03;;
38117;SDS011;23928;47.562;7.508;2022-09-12T06:06:08;3.20;;;2.37;;
38117;SDS011;23928;47.562;7.508;2022-09-12T06:08:37;3.50;;;3.00;;
38117;SDS011;23928;47.562;7.508;2022-09-12T06:11:05;4.53;;;2.53;;
38117;SDS011;23928;47.562;7.508;2022-09-12T06:13:32;5.20;;;3.10;;
38117;SDS011;23928;47.562;7.508;2022-09-12T06:16:05;3.50;;;2.70;;
38117;SDS011;23928;47.562;7.508;2022-09-12T06:18:36;4.07;;;3.13;;
38117;SDS011;23928;47.562;7.508;2022-09-12T06:23:29;7.83;;;3.30;;
38117;SDS011;23928;47.562;7.508;2022-09-12T06:25:55;4.80;;;3.27;;
38117;SDS011;23928;47.562;7.508;2022-09-12T06:28:20;6.47;;;3.87;;
38117;SDS011;23928;47.562;7.508;2022-09-12T06:30:46;6.40;;;3.60;;
38117;SDS011;23928;47.562;7.508;2022-09-12T06:33:12;5.27;;;3.80;;
38117;SDS011;23928;47.562;7.508;2022-09-12T06:35:38;5.80;;;3.70;;
38117;SDS011;23928;47.562;7.508;2022-09-12T06:38:04;6.27;;;3.37;;
38117;SDS011;23928;47.562;7.508;2022-09-12T06:40:30;7.17;;;3.60;;
38117;SDS011;23928;47.562;7.508;2022-09-12T06:42:56;6.67;;;3.60;;
38117;SDS011;23928;47.562;7.508;2022-09-12T06:45:22;5.97;;;4.17;;
38117;SDS011;23928;47.562;7.508;2022-09-12T06:47:48;7.97;;;4.63;;
38117;SDS011;23928;47.562;7.508;2022-09-12T06:50:13;6.80;;;4.40;;
38117;SDS011;23928;47.562;7.508;2022-09-12T06:52:39;5.63;;;4.13;;
38117;SDS011;23928;47.562;7.508;2022-09-12T06:55:05;7.80;;;5.07;;
38117;SDS011;23928;47.562;7.508;2022-09-12T06:57:31;9.40;;;6.33;;
38117;SDS011;23928;47.562;7.508;2022-09-12T07:00:01;10.63;;;6.50;;
38117;SDS011;23928;47.562;7.508;2022-09-12T07:02:28;11.43;;;6.33;;
38117;SDS011;23928;47.562;7.508;2022-09-12T07:04:53;9.77;;;6.47;;
38117;SDS011;23928;47.562;7.508;2022-09-12T07:07:19;9.53;;;5.97;;
38117;SDS011;23928;47.562;7.508;2022-09-12T07:09:45;4.80;;;4.30;;
38117;SDS011;23928;47.562;7.508;2022-09-12T07:12:10;8.30;;;5.13;;
38117;SDS011;23928;47.562;7.508;2022-09-12T07:14:36;7.00;;;4.60;;
38117;SDS011;23928;47.562;7.508;2022-09-12T07:17:02;6.00;;;4.90;;
38117;SDS011;23928;47.562;7.508;2022-09-12T07:19:27;7.10;;;4.57;;
38117;SDS011;23928;47.562;7.508;2022-09-12T07:21:53;8.30;;;5.00;;
38117;SDS011;23928;47.562;7.508;2022-09-12T07:24:19;4.97;;;4.10;;
38117;SDS011;23928;47.562;7.508;2022-09-12T07:26:44;7.17;;;4.40;;
38117;SDS011;23928;47.562;7.508;2022-09-12T07:29:14;5.07;;;3.90;;
38117;SDS011;23928;47.562;7.508;2022-09-12T07:31:40;4.53;;;4.03;;
38117;SDS011;23928;47.562;7.508;2022-09-12T07:34:06;4.37;;;3.97;;
38117;SDS011;23928;47.562;7.508;2022-09-12T07:36:31;4.80;;;4.27;;
38117;SDS011;23928;47.562;7.508;2022-09-12T07:38:57;6.77;;;3.70;;
38117;SDS011;23928;47.562;7.508;2022-09-12T07:41:24;6.27;;;4.07;;
38117;SDS011;23928;47.562;7.508;2022-09-12T07:43:55;5.67;;;4.17;;
38117;SDS011;23928;47.562;7.508;2022-09-12T07:46:22;4.00;;;3.60;;
38117;SDS011;23928;47.562;7.508;2022-09-12T07:48:52;4.00;;;3.53;;
38117;SDS011;23928;47.562;7.508;2022-09-12T07:51:23;4.37;;;3.93;;
38117;SDS011;23928;47.562;7.508;2022-09-12T07:53:50;8.50;;;3.90;;
38117;SDS011;23928;47.562;7.508;2022-09-12T07:56:16;4.83;;;3.47;;
38117;SDS011;23928;47.562;7.508;2022-09-12T07:58:43;4.57;;;4.07;;
38117;SDS011;23928;47.562;7.508;2022-09-12T08:01:13;3.80;;;3.40;;
38117;SDS011;23928;47.562;7.508;2022-09-12T08:03:41;3.87;;;3.40;;
38117;SDS011;23928;47.562;7.508;2022-09-12T08:06:08;3.67;;;3.17;;
38117;SDS011;23928;47.562;7.508;2022-09-12T08:08:35;3.17;;;2.87;;
38117;SDS011;23928;47.562;7.508;2022-09-12T08:11:02;2.93;;;2.60;;
38117;SDS011;23928;47.562;7.508;2022-09-12T08:13:30;4.37;;;2.70;;
38117;SDS011;23928;47.562;7.508;2022-09-12T08:16:00;3.87;;;2.80;;
38117;SDS011;23928;47.562;7.508;2022-09-12T08:18:28;7.03;;;2.77;;
38117;SDS011;23928;47.562;7.508;2022-09-12T08:20:55;2.67;;;2.47;;
38117;SDS011;23928;47.562;7.508;2022-09-12T08:23:24;5.60;;;2.70;;
38117;SDS011;23928;47.562;7.508;2022-09-12T08:25:54;2.70;;;2.40;;
38117;SDS011;23928;47.562;7.508;2022-09-12T08:28:21;3.47;;;2.57;;
38117;SDS011;23928;47.562;7.508;2022-09-12T08:30:46;2.77;;;2.23;;
38117;SDS011;23928;47.562;7.508;2022-09-12T08:33:12;3.77;;;2.80;;
38117;SDS011;23928;47.562;7.508;2022-09-12T08:35:39;2.90;;;2.40;;
38117;SDS011;23928;47.562;7.508;2022-09-12T08:38:04;4.90;;;2.03;;
38117;SDS011;23928;47.562;7.508;2022-09-12T08:40:30;6.30;;;2.37;;
38117;SDS011;23928;47.562;7.508;2022-09-12T08:43:06;2.70;;;2.50;;
38117;SDS011;23928;47.562;7.508;2022-09-12T08:45:47;2.30;;;2.10;;
38117;SDS011;23928;47.562;7.508;2022-09-12T08:48:22;2.57;;;2.37;;
38117;SDS011;23928;47.562;7.508;2022-09-12T08:50:47;2.10;;;1.93;;
38117;SDS011;23928;47.562;7.508;2022-09-12T08:53:15;2.63;;;2.07;;
38117;SDS011;23928;47.562;7.508;2022-09-12T08:55:45;2.20;;;2.00;;
38117;SDS011;23928;47.562;7.508;2022-09-12T08:58:22;2.87;;;2.17;;
38117;SDS011;23928;47.562;7.508;2022-09-12T09:06:54;2.60;;;2.00;;
38117;SDS011;23928;47.562;7.508;2022-09-12T09:12:21;3.27;;;2.00;;
38117;SDS011;23928;47.562;7.508;2022-09-12T09:18:22;2.20;;;1.90;;
38117;SDS011;23928;47.562;7.508;2022-09-12T09:23:30;2.80;;;1.80;;
38117;SDS011;23928;47.562;7.508;2022-09-12T09:31:04;6.23;;;1.90;;
38117;SDS011;23928;47.562;7.508;2022-09-12T09:33:36;3.47;;;1.80;;
38117;SDS011;23928;47.562;7.508;2022-09-12T09:36:07;2.20;;;2.00;;
38117;SDS011;23928;47.562;7.508;2022-09-12T09:38:52;4.27;;;1.90;;
38117;SDS011;23928;47.562;7.508;2022-09-12T09:41:44;9.67;;;4.60;;
38117;SDS011;23928;47.562;7.508;2022-09-12T09:44:21;3.13;;;2.37;;
38117;SDS011;23928;47.562;7.508;2022-09-12T09:46:48;1.67;;;1.57;;
38117;SDS011;23928;47.562;7.508;2022-09-12T09:49:19;5.20;;;1.87;;
38117;SDS011;23928;47.562;7.508;2022-09-12T09:51:45;4.23;;;1.60;;
38117;SDS011;23928;47.562;7.508;2022-09-12T09:56:51;2.93;;;2.03;;
38117;SDS011;23928;47.562;7.508;2022-09-12T10:01:54;3.97;;;2.00;;
38117;SDS011;23928;47.562;7.508;2022-09-12T10:04:25;2.53;;;1.90;;
38117;SDS011;23928;47.562;7.508;2022-09-12T10:06:55;2.83;;;1.87;;
38117;SDS011;23928;47.562;7.508;2022-09-12T10:09:26;5.50;;;1.67;;
38117;SDS011;23928;47.562;7.508;2022-09-12T10:11:57;2.97;;;1.70;;
38117;SDS011;23928;47.562;7.508;2022-09-12T10:17:02;1.90;;;1.80;;
38117;SDS011;23928;47.562;7.508;2022-09-12T10:19:48;1.87;;;1.40;;
38117;SDS011;23928;47.562;7.508;2022-09-12T10:22:17;2.57;;;1.47;;
38117;SDS011;23928;47.562;7.508;2022-09-12T10:24:51;1.80;;;1.70;;
38117;SDS011;23928;47.562;7.508;2022-09-12T10:27:20;4.07;;;2.07;;
38117;SDS011;23928;47.562;7.508;2022-09-12T10:29:48;2.57;;;1.80;;
38117;SDS011;23928;47.562;7.508;2022-09-12T10:34:51;2.03;;;1.87;;
38117;SDS011;23928;47.562;7.508;2022-09-12T10:40:01;3.20;;;1.57;;
38117;SDS011;23928;47.562;7.508;2022-09-12T10:42:46;2.27;;;1.40;;
38117;SDS011;23928;47.562;7.508;2022-09-12T10:45:47;1.83;;;1.40;;
38117;SDS011;23928;47.562;7.508;2022-09-12T10:48:28;3.23;;;1.47;;
38117;SDS011;23928;47.562;7.508;2022-09-12T10:50:56;2.00;;;1.50;;
38117;SDS011;23928;47.562;7.508;2022-09-12T10:53:23;1.50;;;1.30;;
38117;SDS011;23928;47.562;7.508;2022-09-12T11:07:39;3.20;;;1.40;;
38117;SDS011;23928;47.562;7.508;2022-09-12T11:09:47;1.23;;;1.20;;
38117;SDS011;23928;47.562;7.508;2022-09-12T11:21:03;1.93;;;1.50;;
38117;SDS011;23928;47.562;7.508;2022-09-12T11:24:06;1.07;;;1.07;;
38117;SDS011;23928;47.562;7.508;2022-09-12T11:29:58;1.90;;;1.30;;
38117;SDS011;23928;47.562;7.508;2022-09-12T11:35:26;1.50;;;1.40;;
38117;SDS011;23928;47.562;7.508;2022-09-12T11:40:49;3.23;;;0.97;;
38117;SDS011;23928;47.562;7.508;2022-09-12T11:46:20;2.67;;;1.00;;
38117;SDS011;23928;47.562;7.508;2022-09-12T11:49:01;2.63;;;1.20;;
38117;SDS011;23928;47.562;7.508;2022-09-12T12:00:05;1.87;;;1.13;;
38117;SDS011;23928;47.562;7.508;2022-09-12T12:02:34;1.50;;;1.00;;
38117;SDS011;23928;47.562;7.508;2022-09-12T12:05:19;1.00;;;1.00;;
38117;SDS011;23928;47.562;7.508;2022-09-12T12:07:51;0.93;;;0.83;;
38117;SDS011;23928;47.562;7.508;2022-09-12T12:10:23;1.30;;;1.20;;
38117;SDS011;23928;47.562;7.508;2022-09-12T12:12:51;0.97;;;0.97;;
38117;SDS011;23928;47.562;7.508;2022-09-12T12:15:19;0.90;;;0.90;;
38117;SDS011;23928;47.562;7.508;2022-09-12T12:17:58;1.23;;;1.10;;
38117;SDS011;23928;47.562;7.508;2022-09-12T12:20:30;2.97;;;0.80;;
38117;SDS011;23928;47.562;7.508;2022-09-12T12:22:56;3.73;;;1.00;;
38117;SDS011;23928;47.562;7.508;2022-09-12T12:25:23;1.10;;;0.90;;
38117;SDS011;23928;47.562;7.508;2022-09-12T12:28:00;0.90;;;0.90;;
38117;SDS011;23928;47.562;7.508;2022-09-12T12:38:00;1.20;;;0.83;;
38117;SDS011;23928;47.562;7.508;2022-09-12T12:40:28;1.97;;;1.10;;
38117;SDS011;23928;47.562;7.508;2022-09-12T12:48:01;0.90;;;0.87;;
38117;SDS011;23928;47.562;7.508;2022-09-12T12:50:33;0.80;;;0.80;;
38117;SDS011;23928;47.562;7.508;2022-09-12T12:53:06;2.67;;;1.10;;
38117;SDS011;23928;47.562;7.508;2022-09-12T12:55:49;0.83;;;0.77;;
38117;SDS011;23928;47.562;7.508;2022-09-12T13:03:36;1.53;;;1.00;;
38117;SDS011;23928;47.562;7.508;2022-09-12T13:06:05;2.90;;;1.07;;
38117;SDS011;23928;47.562;7.508;2022-09-12T13:08:37;0.80;;;0.80;;
38117;SDS011;23928;47.562;7.508;2022-09-12T13:11:09;1.13;;;0.60;;
38117;SDS011;23928;47.562;7.508;2022-09-12T13:13:44;2.67;;;0.83;;
38117;SDS011;23928;47.562;7.508;2022-09-12T13:16:27;0.97;;;0.97;;
38117;SDS011;23928;47.562;7.508;2022-09-12T13:19:04;1.87;;;1.20;;
38117;SDS011;23928;47.562;7.508;2022-09-12T13:21:56;1.90;;;0.80;;
38117;SDS011;23928;47.562;7.508;2022-09-12T13:24:26;1.70;;;0.80;;
38117;SDS011;23928;47.562;7.508;2022-09-12T13:26:52;0.97;;;0.90;;
38117;SDS011;23928;47.562;7.508;2022-09-12T13:29:19;2.03;;;1.10;;
38117;SDS011;23928;47.562;7.508;2022-09-12T13:31:59;2.27;;;1.00;;
38117;SDS011;23928;47.562;7.508;2022-09-12T13:34:27;0.77;;;0.60;;
38117;SDS011;23928;47.562;7.508;2022-09-12T13:39:36;0.87;;;0.70;;
38117;SDS011;23928;47.562;7.508;2022-09-12T13:45:12;0.70;;;0.70;;
38117;SDS011;23928;47.562;7.508;2022-09-12T13:47:43;3.57;;;1.10;;
38117;SDS011;23928;47.562;7.508;2022-09-12T13:50:15;0.80;;;0.80;;
38117;SDS011;23928;47.562;7.508;2022-09-12T13:52:45;1.23;;;0.90;;
38117;SDS011;23928;47.562;7.508;2022-09-12T13:58:05;1.07;;;0.87;;
38117;SDS011;23928;47.562;7.508;2022-09-12T14:00:40;1.53;;;0.60;;
38117;SDS011;23928;47.562;7.508;2022-09-12T14:03:13;0.77;;;0.70;;
38117;SDS011;23928;47.562;7.508;2022-09-12T14:06:08;0.50;;;0.50;;
38117;SDS011;23928;47.562;7.508;2022-09-12T14:08:37;1.27;;;0.67;;
38117;SDS011;23928;47.562;7.508;2022-09-12T14:11:09;0.60;;;0.60;;
38117;SDS011;23928;47.562;7.508;2022-09-12T14:13:35;0.80;;;0.73;;
38117;SDS011;23928;47.562;7.508;2022-09-12T14:16:03;3.13;;;0.90;;
38117;SDS011;23928;47.562;7.508;2022-09-12T14:18:34;1.37;;;0.80;;
38117;SDS011;23928;47.562;7.508;2022-09-12T14:21:11;3.07;;;0.90;;
38117;SDS011;23928;47.562;7.508;2022-09-12T14:23:44;0.60;;;0.60;;
38117;SDS011;23928;47.562;7.508;2022-09-12T14:26:12;2.13;;;0.90;;
38117;SDS011;23928;47.562;7.508;2022-09-12T14:28:42;1.37;;;0.87;;
38117;SDS011;23928;47.562;7.508;2022-09-12T14:39:33;0.97;;;0.70;;
38117;SDS011;23928;47.562;7.508;2022-09-12T14:41:46;2.27;;;0.77;;
38117;SDS011;23928;47.562;7.508;2022-09-12T14:44:16;1.33;;;0.57;;
38117;SDS011;23928;47.562;7.508;2022-09-12T14:46:47;1.37;;;0.70;;
38117;SDS011;23928;47.562;7.508;2022-09-12T14:51:41;3.23;;;0.70;;
38117;SDS011;23928;47.562;7.508;2022-09-12T14:56:53;0.67;;;0.67;;
38117;SDS011;23928;47.562;7.508;2022-09-12T15:04:44;0.80;;;0.70;;
38117;SDS011;23928;47.562;7.508;2022-09-12T15:09:58;1.70;;;0.70;;
38117;SDS011;23928;47.562;7.508;2022-09-12T15:12:38;0.70;;;0.70;;
38117;SDS011;23928;47.562;7.508;2022-09-12T15:15:13;3.00;;;0.77;;
38117;SDS011;23928;47.562;7.508;2022-09-12T15:17:44;0.60;;;0.60;;
38117;SDS011;23928;47.562;7.508;2022-09-12T15:20:10;2.20;;;1.00;;
38117;SDS011;23928;47.562;7.508;2022-09-12T15:22:37;1.70;;;0.80;;
38117;SDS011;23928;47.562;7.508;2022-09-12T15:25:05;1.03;;;0.83;;
38117;SDS011;23928;47.562;7.508;2022-09-12T15:27:31;0.90;;;0.67;;
38117;SDS011;23928;47.562;7.508;2022-09-12T15:29:57;1.33;;;0.70;;
38117;SDS011;23928;47.562;7.508;2022-09-12T15:32:24;0.70;;;0.70;;
38117;SDS011;23928;47.562;7.508;2022-09-12T15:34:51;0.80;;;0.70;;
38117;SDS011;23928;47.562;7.508;2022-09-12T15:37:18;0.70;;;0.70;;
38117;SDS011;23928;47.562;7.508;2022-09-12T15:39:45;1.00;;;0.73;;
38117;SDS011;23928;47.562;7.508;2022-09-12T15:42:11;1.83;;;0.80;;
38117;SDS011;23928;47.562;7.508;2022-09-12T15:44:38;1.53;;;0.70;;
38117;SDS011;23928;47.562;7.508;2022-09-12T15:47:04;2.77;;;1.07;;
38117;SDS011;23928;47.562;7.508;2022-09-12T15:49:30;1.40;;;1.00;;
38117;SDS011;23928;47.562;7.508;2022-09-12T15:51:56;1.43;;;0.80;;
38117;SDS011;23928;47.562;7.508;2022-09-12T15:54:23;2.60;;;0.93;;
38117;SDS011;23928;47.562;7.508;2022-09-12T15:56:48;1.10;;;0.87;;
38117;SDS011;23928;47.562;7.508;2022-09-12T15:59:14;2.03;;;0.80;;
38117;SDS011;23928;47.562;7.508;2022-09-12T16:01:40;2.00;;;0.77;;
38117;SDS011;23928;47.562;7.508;2022-09-12T16:06:48;2.43;;;0.70;;
38117;SDS011;23928;47.562;7.508;2022-09-12T16:09:14;1.67;;;1.00;;
38117;SDS011;23928;47.562;7.508;2022-09-12T16:11:40;2.37;;;0.70;;
38117;SDS011;23928;47.562;7.508;2022-09-12T16:14:05;1.17;;;0.80;;
38117;SDS011;23928;47.562;7.508;2022-09-12T16:16:32;0.70;;;0.70;;
38117;SDS011;23928;47.562;7.508;2022-09-12T16:18:57;1.70;;;0.67;;
38117;SDS011;23928;47.562;7.508;2022-09-12T16:21:23;1.63;;;0.80;;
38117;SDS011;23928;47.562;7.508;2022-09-12T16:23:49;1.53;;;0.80;;
38117;SDS011;23928;47.562;7.508;2022-09-12T16:26:15;0.87;;;0.70;;
38117;SDS011;23928;47.562;7.508;2022-09-12T16:28:41;2.07;;;0.90;;
38117;SDS011;23928;47.562;7.508;2022-09-12T16:31:07;0.70;;;0.70;;
38117;SDS011;23928;47.562;7.508;2022-09-12T16:33:36;1.33;;;0.90;;
38117;SDS011;23928;47.562;7.508;2022-09-12T16:36:06;0.70;;;0.70;;
38117;SDS011;23928;47.562;7.508;2022-09-12T16:38:33;3.10;;;0.77;;
38117;SDS011;23928;47.562;7.508;2022-09-12T16:41:03;1.03;;;0.80;;
38117;SDS011;23928;47.562;7.508;2022-09-12T16:43:30;1.13;;;0.80;;
38117;SDS011;23928;47.562;7.508;2022-09-12T16:46:04;0.83;;;0.83;;
38117;SDS011;23928;47.562;7.508;2022-09-12T16:48:31;0.90;;;0.83;;
38117;SDS011;23928;47.562;7.508;2022-09-12T16:50:58;1.50;;;1.00;;
38117;SDS011;23928;47.562;7.508;2022-09-12T16:53:26;0.70;;;0.70;;
38117;SDS011;23928;47.562;7.508;2022-09-12T16:55:54;1.83;;;0.87;;
38117;SDS011;23928;47.562;7.508;2022-09-12T16:58:20;0.90;;;0.80;;
38117;SDS011;23928;47.562;7.508;2022-09-12T17:00:45;0.60;;;0.60;;
38117;SDS011;23928;47.562;7.508;2022-09-12T17:03:11;1.13;;;0.93;;
38117;SDS011;23928;47.562;7.508;2022-09-12T17:05:36;0.80;;;0.80;;
38117;SDS011;23928;47.562;7.508;2022-09-12T17:08:03;1.97;;;1.07;;
38117;SDS011;23928;47.562;7.508;2022-09-12T17:10:29;0.90;;;0.90;;
38117;SDS011;23928;47.562;7.508;2022-09-12T17:12:55;4.10;;;0.90;;
38117;SDS011;23928;47.562;7.508;2022-09-12T17:15:21;1.13;;;0.97;;
38117;SDS011;23928;47.562;7.508;2022-09-12T17:17:47;1.20;;;0.90;;
38117;SDS011;23928;47.562;7.508;2022-09-12T17:20:16;2.07;;;1.00;;
38117;SDS011;23928;47.562;7.508;2022-09-12T17:22:42;1.97;;;1.00;;
38117;SDS011;23928;47.562;7.508;2022-09-12T17:25:07;2.13;;;0.87;;
38117;SDS011;23928;47.562;7.508;2022-09-12T17:27:34;3.83;;;1.23;;
38117;SDS011;23928;47.562;7.508;2022-09-12T17:29:59;1.83;;;1.30;;
38117;SDS011;23928;47.562;7.508;2022-09-12T17:32:25;1.10;;;1.10;;
38117;SDS011;23928;47.562;7.508;2022-09-12T17:34:51;2.43;;;0.80;;
38117;SDS011;23928;47.562;7.508;2022-09-12T17:37:17;1.00;;;0.90;;
38117;SDS011;23928;47.562;7.508;2022-09-12T17:39:42;1.00;;;1.00;;
38117;SDS011;23928;47.562;7.508;2022-09-12T17:42:08;1.17;;;0.83;;
38117;SDS011;23928;47.562;7.508;2022-09-12T17:44:33;1.43;;;1.10;;
38117;SDS011;23928;47.562;7.508;2022-09-12T17:47:00;1.13;;;1.00;;
38117;SDS011;23928;47.562;7.508;2022-09-12T17:49:26;2.80;;;1.30;;
38117;SDS011;23928;47.562;7.508;2022-09-12T17:51:52;2.93;;;1.17;;
38117;SDS011;23928;47.562;7.508;2022-09-12T17:54:20;2.63;;;1.20;;
38117;SDS011;23928;47.562;7.508;2022-09-12T17:56:46;2.70;;;0.90;;
38117;SDS011;23928;47.562;7.508;2022-09-12T17:59:16;1.10;;;1.00;;
38117;SDS011;23928;47.562;7.508;2022-09-12T18:01:44;1.53;;;1.20;;